Time;durP1;ratioP1;P1;durP2;ratioP2;P2;SDS_P1;SDS_P2;PMS_P1;PMS_P2;Temp;Humidity;BMP_temperature;BMP_pressure;BME280_temperature;BME280_humidity;BME280_pressure;Samples;Min_cycle;Max_cycle;Signal;HPM_P1;HPM_P2
2023/07/12 00:01:19;;;;;;;2.65;1.38;;;;;;;;;;5029584;28;20037;-94
2023/07/12 00:03:45;;;;;;;3.67;1.60;;;;;;;;;;5031719;28;20041;-95
2023/07/12 00:06:15;;;;;;;2.50;1.20;;;;;;;;;;5027100;28;20036;-95
2023/07/12 00:08:41;;;;;;;;;;;;;;;;;;5029087;28;20079;-94
2023/07/12 00:11:12;;;;;;;2.83;1.60;;;;;;;;;;5048456;28;20338;-95
2023/07/12 00:13:38;;;;;;;3.05;1.70;;;;;;;;;;5028027;28;20064;-94
2023/07/12 00:16:10;;;;;;;1.48;1.35;;;;;;;;;;5030805;28;20045;-94
2023/07/12 00:18:36;;;;;;;2.28;1.30;;;;;;;;;;5024682;28;20071;-94
2023/07/12 00:21:02;;;;;;;2.63;1.65;;;;;;;;;;5057735;28;20051;-94
2023/07/12 00:23:28;;;;;;;3.45;1.70;;;;;;;;;;5022466;28;20474;-94
2023/07/12 00:25:54;;;;;;;2.40;1.42;;;;;;;;;;5030423;28;20064;-94
2023/07/12 00:28:21;;;;;;;1.55;1.45;;;;;;;;;;5047879;28;20045;-94
2023/07/12 00:30:48;;;;;;;1.65;1.20;;;;;;;;;;5029888;28;20072;-94
2023/07/12 00:33:14;;;;;;;2.25;1.40;;;;;;;;;;5043574;28;20078;-94
2023/07/12 00:35:42;;;;;;;2.78;1.30;;;;;;;;;;5027430;28;20049;-94
2023/07/12 00:38:18;;;;;;;2.30;1.45;;;;;;;;;;5043966;28;20045;-95
2023/07/12 00:41:01;;;;;;;1.83;1.55;;;;;;;;;;5048700;28;20044;-94
2023/07/12 00:43:38;;;;;;;2.40;1.33;;;;;;;;;;5032287;28;20512;-94
2023/07/12 00:46:17;;;;;;;3.15;1.20;;;;;;;;;;5033621;28;20086;-96
2023/07/12 00:48:46;;;;;;;3.05;1.75;;;;;;;;;;5032554;28;20098;-94
2023/07/12 00:51:24;;;;;;;2.28;1.70;;;;;;;;;;5030722;28;20045;-95
2023/07/12 00:53:50;;;;;;;2.72;1.77;;;;;;;;;;5049578;28;20040;-94
2023/07/12 00:56:16;;;;;;;2.33;1.52;;;;;;;;;;5029769;28;20102;-94
2023/07/12 00:58:45;;;;;;;2.35;1.55;;;;;;;;;;5033704;28;20049;-95
2023/07/12 01:01:11;;;;;;;2.35;1.70;;;;;;;;;;5044909;28;20049;-95
2023/07/12 01:03:38;;;;;;;2.15;1.70;;;;;;;;;;5030853;28;20094;-95
2023/07/12 01:06:07;;;;;;;1.75;1.60;;;;;;;;;;5032074;28;20135;-95
2023/07/12 01:08:33;;;;;;;2.80;1.77;;;;;;;;;;5045498;28;20098;-94
2023/07/12 01:11:02;;;;;;;5.60;1.52;;;;;;;;;;5033585;28;20090;-95
2023/07/12 01:13:29;;;;;;;2.00;1.80;;;;;;;;;;5050128;28;20592;-95
2023/07/12 01:15:55;;;;;;;2.95;1.60;;;;;;;;;;5033343;28;20036;-94
2023/07/12 01:18:21;;;;;;;2.03;1.67;;;;;;;;;;5033015;28;20070;-95
2023/07/12 01:20:47;;;;;;;2.85;1.77;;;;;;;;;;5044937;28;20400;-93
2023/07/12 01:23:14;;;;;;;2.60;1.73;;;;;;;;;;5046449;28;20036;-93
2023/07/12 01:25:42;;;;;;;2.08;1.65;;;;;;;;;;5028210;28;20048;-94
2023/07/12 01:28:08;;;;;;;2.17;1.67;;;;;;;;;;5048786;28;20090;-93
2023/07/12 01:30:34;;;;;;;2.45;1.67;;;;;;;;;;5078056;28;20131;-94
2023/07/12 01:33:00;;;;;;;2.72;1.63;;;;;;;;;;5033447;28;20036;-93
2023/07/12 01:35:26;;;;;;;2.28;1.58;;;;;;;;;;5030590;28;20048;-93
2023/07/12 01:37:52;;;;;;;1.90;1.70;;;;;;;;;;5031320;28;20122;-93
2023/07/12 01:40:18;;;;;;;3.50;1.80;;;;;;;;;;5047603;28;20043;-94
2023/07/12 01:42:44;;;;;;;2.95;1.63;;;;;;;;;;5032270;28;20048;-93
2023/07/12 01:45:10;;;;;;;2.42;1.90;;;;;;;;;;5030665;28;20382;-94
2023/07/12 01:47:37;;;;;;;3.67;1.73;;;;;;;;;;5056649;28;20041;-92
2023/07/12 01:50:03;;;;;;;2.55;2.15;;;;;;;;;;5049972;28;20260;-92
2023/07/12 01:52:29;;;;;;;2.22;1.67;;;;;;;;;;5032356;28;20049;-92
2023/07/12 01:54:55;;;;;;;3.35;1.65;;;;;;;;;;5031221;28;20041;-94
2023/07/12 01:57:21;;;;;;;2.05;1.80;;;;;;;;;;5031487;28;20103;-93
2023/07/12 01:59:47;;;;;;;1.58;1.42;;;;;;;;;;5032570;28;20517;-93
2023/07/12 02:02:13;;;;;;;3.15;1.60;;;;;;;;;;5047982;28;20041;-95
2023/07/12 02:04:39;;;;;;;3.10;1.60;;;;;;;;;;5033600;28;20041;-94
2023/07/12 02:07:05;;;;;;;2.17;1.25;;;;;;;;;;5032041;28;20393;-94
2023/07/12 02:09:35;;;;;;;3.30;1.77;;;;;;;;;;5044795;28;20036;-93
2023/07/12 02:12:02;;;;;;;5.18;1.83;;;;;;;;;;5029864;28;20126;-94
2023/07/12 02:14:28;;;;;;;2.17;1.63;;;;;;;;;;5033116;28;20055;-93
2023/07/12 02:16:54;;;;;;;3.17;1.95;;;;;;;;;;5030490;28;20040;-94
2023/07/12 02:19:20;;;;;;;2.58;1.65;;;;;;;;;;5047685;28;20040;-94
2023/07/12 02:21:46;;;;;;;3.55;1.85;;;;;;;;;;5032847;28;20092;-94
2023/07/12 02:24:12;;;;;;;3.40;2.13;;;;;;;;;;5049915;28;20048;-95
2023/07/12 02:26:39;;;;;;;3.58;1.85;;;;;;;;;;5034017;28;20049;-92
2023/07/12 02:29:05;;;;;;;3.42;2.10;;;;;;;;;;5055805;28;20045;-93
2023/07/12 02:31:32;;;;;;;3.30;1.98;;;;;;;;;;5036734;28;20041;-93
2023/07/12 02:33:58;;;;;;;4.32;2.05;;;;;;;;;;5049776;28;20044;-94
2023/07/12 02:36:24;;;;;;;5.35;2.13;;;;;;;;;;5047273;28;20083;-94
2023/07/12 02:38:50;;;;;;;3.97;1.73;;;;;;;;;;5049468;28;20067;-93
2023/07/12 02:41:16;;;;;;;2.03;1.63;;;;;;;;;;5033872;28;20452;-94
2023/07/12 02:43:43;;;;;;;3.60;1.98;;;;;;;;;;5033939;28;20041;-96
2023/07/12 02:46:09;;;;;;;2.35;1.48;;;;;;;;;;5031101;28;20041;-93
2023/07/12 02:48:35;;;;;;;3.28;1.88;;;;;;;;;;5052606;28;20036;-93
2023/07/12 02:51:01;;;;;;;2.70;1.92;;;;;;;;;;5042935;28;20135;-94
2023/07/12 02:53:28;;;;;;;5.22;2.00;;;;;;;;;;5055159;28;20048;-95
2023/07/12 02:55:54;;;;;;;3.42;2.10;;;;;;;;;;5037752;28;20132;-94
2023/07/12 02:58:21;;;;;;;5.38;2.65;;;;;;;;;;5033339;28;20081;-96
2023/07/12 03:00:47;;;;;;;4.10;2.40;;;;;;;;;;5031755;28;20033;-93
2023/07/12 03:03:13;;;;;;;3.25;2.33;;;;;;;;;;5036833;28;20039;-94
2023/07/12 03:05:40;;;;;;;3.92;2.30;;;;;;;;;;5047004;28;20033;-93
2023/07/12 03:08:06;;;;;;;3.70;2.00;;;;;;;;;;5030386;28;20044;-94
2023/07/12 03:10:35;;;;;;;3.25;2.35;;;;;;;;;;5051590;28;20291;-95
2023/07/12 03:13:01;;;;;;;3.95;1.85;;;;;;;;;;5047532;28;20068;-96
2023/07/12 03:15:27;;;;;;;3.20;2.10;;;;;;;;;;5047354;28;20037;-95
2023/07/12 03:17:53;;;;;;;2.25;1.83;;;;;;;;;;5028106;28;20253;-93
2023/07/12 03:20:19;;;;;;;4.85;2.20;;;;;;;;;;5031163;28;20067;-95
2023/07/12 03:22:45;;;;;;;5.15;2.30;;;;;;;;;;5041061;28;20044;-94
2023/07/12 03:25:11;;;;;;;3.85;2.15;;;;;;;;;;5048356;28;20052;-96
2023/07/12 03:27:37;;;;;;;4.35;1.98;;;;;;;;;;5029672;28;20049;-94
2023/07/12 03:30:04;;;;;;;4.00;2.60;;;;;;;;;;5051939;28;20398;-96
2023/07/12 03:32:30;;;;;;;4.32;2.70;;;;;;;;;;5034471;28;20041;-96
2023/07/12 03:34:56;;;;;;;3.17;2.30;;;;;;;;;;5026884;28;20103;-94
2023/07/12 03:37:22;;;;;;;4.20;2.17;;;;;;;;;;5044899;28;20035;-94
2023/07/12 03:39:48;;;;;;;6.07;2.33;;;;;;;;;;5030905;28;20091;-94
2023/07/12 03:42:14;;;;;;;5.13;2.45;;;;;;;;;;5049146;28;20048;-95
2023/07/12 03:44:40;;;;;;;5.20;2.30;;;;;;;;;;5030647;28;20094;-95
2023/07/12 03:47:06;;;;;;;7.45;2.60;;;;;;;;;;5038641;28;20037;-96
2023/07/12 03:49:33;;;;;;;4.63;2.45;;;;;;;;;;5020717;28;20115;-94
2023/07/12 03:51:58;;;;;;;5.15;2.33;;;;;;;;;;5029920;28;20075;-95
2023/07/12 03:54:24;;;;;;;4.03;2.33;;;;;;;;;;5043449;28;20131;-94
2023/07/12 03:56:51;;;;;;;4.82;2.42;;;;;;;;;;5048312;28;20123;-96
2023/07/12 03:59:17;;;;;;;6.07;2.85;;;;;;;;;;5031426;28;20486;-95
2023/07/12 04:01:43;;;;;;;6.22;2.40;;;;;;;;;;5035524;28;20037;-94
2023/07/12 04:04:09;;;;;;;4.95;2.67;;;;;;;;;;5035571;28;20038;-95
2023/07/12 04:06:36;;;;;;;3.65;2.10;;;;;;;;;;5040822;28;20060;-95
2023/07/12 04:09:03;;;;;;;3.30;2.58;;;;;;;;;;5043612;28;20041;-94
2023/07/12 04:11:30;;;;;;;5.82;2.50;;;;;;;;;;5040586;28;20037;-95
2023/07/12 04:13:59;;;;;;;3.50;2.35;;;;;;;;;;5037066;28;20113;-96
2023/07/12 04:16:25;;;;;;;3.45;2.45;;;;;;;;;;5041413;28;20045;-96
2023/07/12 04:18:51;;;;;;;3.92;2.53;;;;;;;;;;5042730;28;20398;-95
2023/07/12 04:21:17;;;;;;;4.97;2.55;;;;;;;;;;5041223;28;20087;-95
2023/07/12 04:23:43;;;;;;;7.45;2.25;;;;;;;;;;5053951;28;20087;-96
2023/07/12 04:26:10;;;;;;;5.38;2.47;;;;;;;;;;5042880;28;20038;-94
2023/07/12 04:28:38;;;;;;;4.05;2.05;;;;;;;;;;5037015;28;20075;-94
2023/07/12 04:31:06;;;;;;;8.35;2.45;;;;;;;;;;5063474;28;20075;-93
2023/07/12 04:33:32;;;;;;;4.20;2.13;;;;;;;;;;5057872;28;20040;-92
2023/07/12 04:35:58;;;;;;;4.50;2.35;;;;;;;;;;5041273;28;20033;-95
2023/07/12 04:38:24;;;;;;;5.45;2.60;;;;;;;;;;5046857;28;20133;-93
2023/07/12 04:40:54;;;;;;;6.03;2.70;;;;;;;;;;5058043;28;20040;-94
2023/07/12 04:43:20;;;;;;;4.22;2.50;;;;;;;;;;5044226;28;20124;-94
2023/07/12 04:45:46;;;;;;;5.53;2.47;;;;;;;;;;5065040;28;20076;-93
2023/07/12 04:48:12;;;;;;;4.55;2.25;;;;;;;;;;5054642;28;20033;-94
2023/07/12 04:50:38;;;;;;;6.70;2.70;;;;;;;;;;5057345;28;20040;-91
2023/07/12 04:53:04;;;;;;;7.32;2.58;;;;;;;;;;5060830;28;20033;-92
2023/07/12 04:55:31;;;;;;;3.88;2.05;;;;;;;;;;5040892;28;20393;-92
2023/07/12 04:57:57;;;;;;;5.82;2.33;;;;;;;;;;5050781;28;20503;-93
2023/07/12 05:00:24;;;;;;;4.35;2.50;;;;;;;;;;5051238;28;20080;-91
2023/07/12 05:02:50;;;;;;;4.53;2.35;;;;;;;;;;5049417;28;20039;-91
2023/07/12 05:05:16;;;;;;;4.45;2.22;;;;;;;;;;5050565;28;20033;-93
2023/07/12 05:07:43;;;;;;;4.50;2.65;;;;;;;;;;5051961;28;20060;-90
2023/07/12 05:10:10;;;;;;;4.40;2.42;;;;;;;;;;5040021;28;20103;-92
2023/07/12 05:12:37;;;;;;;3.85;2.60;;;;;;;;;;5068601;28;20071;-93
2023/07/12 05:15:04;;;;;;;6.07;2.67;;;;;;;;;;5048310;28;20051;-91
2023/07/12 05:17:30;;;;;;;5.00;2.65;;;;;;;;;;5050299;28;20060;-93
2023/07/12 05:19:56;;;;;;;5.40;2.35;;;;;;;;;;5058529;28;20053;-90
2023/07/12 05:22:23;;;;;;;7.68;3.40;;;;;;;;;;5052114;28;20056;-87
2023/07/12 05:24:49;;;;;;;4.97;2.72;;;;;;;;;;5047942;28;20047;-89
2023/07/12 05:27:15;;;;;;;5.70;2.42;;;;;;;;;;5045003;28;20044;-90
2023/07/12 05:29:41;;;;;;;4.75;2.50;;;;;;;;;;5047707;28;20044;-87
2023/07/12 05:32:08;;;;;;;4.50;2.83;;;;;;;;;;5044290;28;20437;-88
2023/07/12 05:34:34;;;;;;;6.97;2.80;;;;;;;;;;5048107;28;20131;-89
2023/07/12 05:37:00;;;;;;;6.65;3.10;;;;;;;;;;5051793;28;20502;-87
2023/07/12 05:39:26;;;;;;;6.22;2.88;;;;;;;;;;5046609;28;20044;-88
2023/07/12 05:41:52;;;;;;;4.20;2.75;;;;;;;;;;5049994;28;20048;-87
2023/07/12 05:44:19;;;;;;;6.15;3.17;;;;;;;;;;5048240;28;20047;-86
2023/07/12 05:46:45;;;;;;;7.10;3.38;;;;;;;;;;5046047;28;20087;-87
2023/07/12 05:49:11;;;;;;;9.27;3.47;;;;;;;;;;5073865;28;20485;-86
2023/07/12 05:51:37;;;;;;;6.95;3.40;;;;;;;;;;5042377;28;20306;-86
2023/07/12 05:54:03;;;;;;;9.10;4.03;;;;;;;;;;5044187;28;20057;-88
2023/07/12 05:56:29;;;;;;;9.90;4.22;;;;;;;;;;5043480;28;20033;-87
2023/07/12 05:58:55;;;;;;;9.02;3.72;;;;;;;;;;5043770;28;20036;-86
2023/07/12 06:01:21;;;;;;;6.13;3.38;;;;;;;;;;5047091;28;20040;-87
2023/07/12 06:03:48;;;;;;;7.68;3.88;;;;;;;;;;5030812;28;20053;-86
2023/07/12 06:06:14;;;;;;;8.48;3.28;;;;;;;;;;5049234;28;20053;-85
2023/07/12 06:08:40;;;;;;;8.60;3.47;;;;;;;;;;5040520;28;20044;-85
2023/07/12 06:11:06;;;;;;;7.78;2.90;;;;;;;;;;5040054;28;20041;-85
2023/07/12 06:13:32;;;;;;;4.50;3.28;;;;;;;;;;5047154;28;20080;-86
2023/07/12 06:15:58;;;;;;;5.57;3.47;;;;;;;;;;5036995;28;20071;-87
2023/07/12 06:18:25;;;;;;;5.90;3.97;;;;;;;;;;5053636;28;20098;-85
2023/07/12 06:20:54;;;;;;;7.45;3.90;;;;;;;;;;5039690;28;20656;-84
2023/07/12 06:23:20;;;;;;;9.75;4.40;;;;;;;;;;5046404;28;20378;-83
2023/07/12 06:25:46;;;;;;;9.35;4.18;;;;;;;;;;5048183;28;20048;-87
2023/07/12 06:28:12;;;;;;;7.18;4.45;;;;;;;;;;5048359;28;20048;-85
2023/07/12 06:30:41;;;;;;;11.48;5.97;;;;;;;;;;5041321;28;20073;-85
2023/07/12 06:33:07;;;;;;;8.73;5.47;;;;;;;;;;5047696;28;20106;-87
2023/07/12 06:35:33;;;;;;;8.52;4.45;;;;;;;;;;5044714;28;20049;-86
2023/07/12 06:37:59;;;;;;;9.20;4.78;;;;;;;;;;5045084;28;20381;-87
2023/07/12 06:40:25;;;;;;;8.68;5.18;;;;;;;;;;5048403;28;20045;-86
2023/07/12 06:42:51;;;;;;;7.45;5.07;;;;;;;;;;5046770;28;20064;-88
2023/07/12 06:45:17;;;;;;;7.75;4.90;;;;;;;;;;5044529;28;20045;-88
2023/07/12 06:47:44;;;;;;;8.70;4.55;;;;;;;;;;5046832;28;20089;-88
2023/07/12 06:50:10;;;;;;;9.25;5.88;;;;;;;;;;5029296;28;20037;-86
2023/07/12 06:52:36;;;;;;;9.05;6.10;;;;;;;;;;5040532;28;20410;-87
2023/07/12 06:55:02;;;;;;;9.35;5.43;;;;;;;;;;5074269;28;20044;-86
2023/07/12 06:57:28;;;;;;;8.23;5.03;;;;;;;;;;5042399;28;20056;-83
2023/07/12 06:59:54;;;;;;;9.25;5.22;;;;;;;;;;5045263;28;20044;-84
2023/07/12 07:02:20;;;;;;;7.38;5.20;;;;;;;;;;5047098;28;20045;-82
2023/07/12 07:04:46;;;;;;;9.38;5.88;;;;;;;;;;5045340;28;20060;-83
2023/07/12 07:07:12;;;;;;;8.13;5.22;;;;;;;;;;5047177;28;20043;-82
2023/07/12 07:09:39;;;;;;;9.23;5.95;;;;;;;;;;5049413;28;20037;-84
2023/07/12 07:12:06;;;;;;;11.20;4.35;;;;;;;;;;5049839;28;20056;-87
2023/07/12 07:14:32;;;;;;;6.68;4.28;;;;;;;;;;5040136;28;20049;-82
2023/07/12 07:16:58;;;;;;;7.43;4.45;;;;;;;;;;5050834;28;20044;-87
2023/07/12 07:19:24;;;;;;;6.38;4.25;;;;;;;;;;5049012;28;20044;-87
2023/07/12 07:21:50;;;;;;;8.23;4.28;;;;;;;;;;5047007;28;20029;-86
2023/07/12 07:24:17;;;;;;;7.35;3.88;;;;;;;;;;5045480;28;20146;-87
2023/07/12 07:26:44;;;;;;;5.47;3.72;;;;;;;;;;5044569;28;20040;-87
2023/07/12 07:29:10;;;;;;;5.13;4.45;;;;;;;;;;5048134;28;20053;-87
2023/07/12 07:31:36;;;;;;;10.35;4.40;;;;;;;;;;5047577;28;20412;-86
2023/07/12 07:34:03;;;;;;;8.45;3.75;;;;;;;;;;5047850;28;20503;-86
2023/07/12 07:36:29;;;;;;;6.00;3.70;;;;;;;;;;5044532;28;20132;-85
2023/07/12 07:38:55;;;;;;;4.82;3.80;;;;;;;;;;5030494;28;20036;-85
2023/07/12 07:41:21;;;;;;;10.25;4.82;;;;;;;;;;5043774;28;20044;-86
2023/07/12 07:43:47;;;;;;;7.93;4.05;;;;;;;;;;5047418;28;20047;-85
2023/07/12 07:46:14;;;;;;;6.38;3.75;;;;;;;;;;5032901;28;20052;-86
2023/07/12 07:48:40;;;;;;;5.78;3.47;;;;;;;;;;5047107;28;20045;-85
2023/07/12 07:51:10;;;;;;;8.00;3.92;;;;;;;;;;5045732;28;20128;-85
2023/07/12 07:53:36;;;;;;;7.57;4.10;;;;;;;;;;5046786;28;20478;-87
2023/07/12 07:56:03;;;;;;;8.75;4.43;;;;;;;;;;5040338;28;20040;-85
2023/07/12 07:58:29;;;;;;;5.60;3.35;;;;;;;;;;5042947;28;20043;-85
2023/07/12 08:00:55;;;;;;;9.75;4.97;;;;;;;;;;5044307;28;20036;-87
2023/07/12 08:03:21;;;;;;;10.55;3.80;;;;;;;;;;5043050;28;20458;-85
2023/07/12 08:05:47;;;;;;;6.10;4.00;;;;;;;;;;5047302;28;20394;-84
2023/07/12 08:08:13;;;;;;;7.20;3.72;;;;;;;;;;5046030;28;20044;-83
2023/07/12 08:10:39;;;;;;;5.88;3.63;;;;;;;;;;5048946;28;20048;-85
2023/07/12 08:13:05;;;;;;;8.02;4.07;;;;;;;;;;5046155;28;20136;-84
2023/07/12 08:15:31;;;;;;;6.85;2.83;;;;;;;;;;5044956;28;20068;-85
2023/07/12 08:17:57;;;;;;;5.95;3.30;;;;;;;;;;5048183;28;20055;-84
2023/07/12 08:20:24;;;;;;;4.60;3.13;;;;;;;;;;5044289;28;20048;-84
2023/07/12 08:22:51;;;;;;;4.70;3.03;;;;;;;;;;5046552;28;20045;-84
2023/07/12 08:25:17;;;;;;;7.57;3.30;;;;;;;;;;5028020;28;20041;-84
2023/07/12 08:27:43;;;;;;;6.07;3.22;;;;;;;;;;5041916;28;20065;-83
2023/07/12 08:30:09;;;;;;;6.80;3.05;;;;;;;;;;5043950;28;20041;-84
2023/07/12 08:32:35;;;;;;;4.80;3.58;;;;;;;;;;5044824;28;20090;-83
2023/07/12 08:35:01;;;;;;;5.03;3.00;;;;;;;;;;5044990;28;20152;-83
2023/07/12 08:37:28;;;;;;;5.60;3.03;;;;;;;;;;5043950;28;20124;-84
2023/07/12 08:39:54;;;;;;;8.32;2.97;;;;;;;;;;5044236;28;20128;-83
2023/07/12 08:42:24;;;;;;;4.55;2.80;;;;;;;;;;5046877;28;20039;-82
2023/07/12 08:44:50;;;;;;;;;;;;;;;;;;5048967;28;20186;-83
2023/07/12 08:47:19;;;;;;;6.70;3.00;;;;;;;;;;5044752;28;20011;-81
2023/07/12 08:49:45;;;;;;;3.72;2.92;;;;;;;;;;5041581;28;20115;-83
2023/07/12 08:52:16;;;;;;;9.05;4.80;;;;;;;;;;5044119;28;20738;-83
2023/07/12 08:54:43;;;;;;;8.60;3.40;;;;;;;;;;5039613;28;20048;-86
2023/07/12 08:57:19;;;;;;;5.93;3.78;;;;;;;;;;5045401;28;20052;-88
2023/07/12 08:59:45;;;;;;;;;;;;;;;;;;5050306;28;20045;-84
2023/07/12 09:02:19;;;;;;;6.57;3.70;;;;;;;;;;5042035;28;20288;-89
2023/07/12 09:04:46;;;;;;;6.60;3.60;;;;;;;;;;5052471;28;20175;-90
2023/07/12 09:07:20;;;;;;;7.88;3.50;;;;;;;;;;5050525;28;20055;-93
2023/07/12 09:09:48;;;;;;;10.30;4.25;;;;;;;;;;5049617;28;20049;-90
2023/07/12 09:12:25;;;;;;;6.30;4.10;;;;;;;;;;5054356;28;20409;-90
2023/07/12 09:14:58;;;;;;;7.68;3.80;;;;;;;;;;5053814;28;20048;-89
2023/07/12 09:17:27;;;;;;;7.10;3.95;;;;;;;;;;5043100;28;20033;-88
2023/07/12 09:19:53;;;;;;;7.10;4.07;;;;;;;;;;5044310;28;20045;-89
2023/07/12 09:22:20;;;;;;;8.38;5.53;;;;;;;;;;5052323;28;20378;-88
2023/07/12 09:24:50;;;;;;;6.65;4.47;;;;;;;;;;5052649;28;20374;-89
2023/07/12 09:27:18;;;;;;;10.50;4.72;;;;;;;;;;5055902;28;20098;-91
2023/07/12 09:29:44;;;;;;;6.25;4.15;;;;;;;;;;5050741;28;20045;-88
2023/07/12 09:32:16;;;;;;;7.65;4.10;;;;;;;;;;5043970;28;20056;-85
2023/07/12 09:34:42;;;;;;;7.68;4.80;;;;;;;;;;5043770;28;20132;-85
2023/07/12 09:37:17;;;;;;;6.95;4.10;;;;;;;;;;5049841;28;20045;-84
2023/07/12 09:39:52;;;;;;;7.05;3.72;;;;;;;;;;5046652;28;20041;-87
2023/07/12 09:42:18;;;;;;;6.40;4.00;;;;;;;;;;5047683;28;20099;-87
2023/07/12 09:44:45;;;;;;;10.93;4.20;;;;;;;;;;5037956;28;20049;-85
2023/07/12 09:47:33;;;;;;;5.70;3.67;;;;;;;;;;5047365;28;20045;-85
2023/07/12 09:50:04;;;;;;;6.70;3.60;;;;;;;;;;5033485;28;20049;-83
2023/07/12 09:52:37;;;;;;;7.85;2.67;;;;;;;;;;5080378;28;20124;-85
2023/07/12 09:55:05;;;;;;;5.63;2.55;;;;;;;;;;5055336;28;21053;-87
2023/07/12 09:57:53;;;;;;;3.70;2.17;;;;;;;;;;5052296;28;20102;-86
2023/07/12 10:00:19;;;;;;;5.18;2.10;;;;;;;;;;5042453;28;20049;-85
2023/07/12 10:02:54;;;;;;;5.10;2.40;;;;;;;;;;5050330;28;20045;-86
2023/07/12 10:05:21;;;;;;;7.22;3.00;;;;;;;;;;5043801;28;20072;-85
2023/07/12 10:07:57;;;;;;;4.90;3.35;;;;;;;;;;5046925;28;20033;-84
2023/07/12 10:10:23;;;;;;;;;;;;;;;;;;5047770;28;20436;-84
2023/07/12 10:13:03;;;;;;;8.32;3.70;;;;;;;;;;5051020;28;19925;-85
2023/07/12 10:15:31;;;;;;;3.05;1.98;;;;;;;;;;5050660;28;20036;-84
2023/07/12 10:17:57;;;;;;;6.28;1.90;;;;;;;;;;5049905;28;20045;-93
2023/07/12 10:20:24;;;;;;;4.95;2.03;;;;;;;;;;5051134;28;20048;-91
2023/07/12 10:22:52;;;;;;;3.92;2.08;;;;;;;;;;5048248;28;20044;-89
2023/07/12 10:25:18;;;;;;;5.05;1.88;;;;;;;;;;5058635;28;20041;-95
2023/07/12 10:27:47;;;;;;;7.68;2.30;;;;;;;;;;5038806;28;20069;-91
2023/07/12 10:30:18;;;;;;;3.08;2.00;;;;;;;;;;5041213;28;20048;-88
2023/07/12 10:32:49;;;;;;;7.47;3.28;;;;;;;;;;5038622;28;20041;-92
2023/07/12 10:35:22;;;;;;;6.45;2.05;;;;;;;;;;5043748;28;20040;-95
2023/07/12 10:37:51;;;;;;;3.67;1.80;;;;;;;;;;5053210;28;20039;-94
2023/07/12 10:40:22;;;;;;;4.93;1.80;;;;;;;;;;5067929;28;20047;-95
2023/07/12 10:42:53;;;;;;;3.53;1.60;;;;;;;;;;5064294;28;20033;-88
2023/07/12 10:45:23;;;;;;;3.33;1.50;;;;;;;;;;5061260;28;20052;-91
2023/07/12 10:47:50;;;;;;;3.25;1.75;;;;;;;;;;5067561;28;20028;-86
2023/07/12 10:50:37;;;;;;;5.25;2.88;;;;;;;;;;5064379;28;20059;-90
2023/07/12 10:53:23;;;;;;;3.92;1.90;;;;;;;;;;5063325;28;20080;-91
2023/07/12 10:56:08;;;;;;;5.93;1.85;;;;;;;;;;5065180;28;20063;-88
2023/07/12 10:58:48;;;;;;;3.35;1.52;;;;;;;;;;5046803;28;20057;-91
2023/07/12 11:01:35;;;;;;;4.28;1.83;;;;;;;;;;5049975;28;20051;-91
2023/07/12 11:04:12;;;;;;;2.05;1.70;;;;;;;;;;5047089;28;20178;-88
2023/07/12 11:06:55;;;;;;;2.10;1.60;;;;;;;;;;5046313;28;20049;-92
2023/07/12 11:09:22;;;;;;;6.60;2.03;;;;;;;;;;5049317;28;20041;-91
2023/07/12 11:11:49;;;;;;;2.40;1.80;;;;;;;;;;5048941;28;20029;-91
2023/07/12 11:14:16;;;;;;;2.45;1.60;;;;;;;;;;5046736;28;20106;-85
2023/07/12 11:16:48;;;;;;;3.70;1.85;;;;;;;;;;5047017;28;20051;-90
2023/07/12 11:19:31;;;;;;;4.60;1.90;;;;;;;;;;5044754;28;20083;-87
2023/07/12 11:21:59;;;;;;;3.85;1.40;;;;;;;;;;5046559;28;20092;-89
2023/07/12 11:24:28;;;;;;;5.40;2.25;;;;;;;;;;5045732;28;20053;-88
2023/07/12 11:26:58;;;;;;;4.07;1.80;;;;;;;;;;5046047;28;20037;-86
2023/07/12 11:29:24;;;;;;;3.55;2.00;;;;;;;;;;5046064;28;20036;-86
2023/07/12 11:32:01;;;;;;;5.25;2.33;;;;;;;;;;5047838;28;20044;-89
2023/07/12 11:34:27;;;;;;;4.93;1.90;;;;;;;;;;5044489;28;20598;-88
2023/07/12 11:36:55;;;;;;;3.13;1.90;;;;;;;;;;5047415;28;20120;-88
2023/07/12 11:39:23;;;;;;;4.00;2.22;;;;;;;;;;5047564;28;20051;-89
2023/07/12 11:41:56;;;;;;;4.15;2.10;;;;;;;;;;5049585;28;20087;-87
2023/07/12 11:44:25;;;;;;;4.18;1.73;;;;;;;;;;5049350;28;20123;-88
2023/07/12 11:46:52;;;;;;;3.72;2.08;;;;;;;;;;5047352;28;20045;-87
2023/07/12 11:49:19;;;;;;;2.13;1.38;;;;;;;;;;5046640;28;20449;-91
2023/07/12 11:51:46;;;;;;;2.70;1.75;;;;;;;;;;5046068;28;20386;-92
2023/07/12 11:54:31;;;;;;;3.15;1.70;;;;;;;;;;5047663;28;20468;-94
2023/07/12 11:57:02;;;;;;;2.40;1.60;;;;;;;;;;5049080;28;20370;-87
2023/07/12 11:59:30;;;;;;;2.83;1.30;;;;;;;;;;5042675;28;20053;-89
2023/07/12 12:01:56;;;;;;;3.17;1.52;;;;;;;;;;5046457;28;20052;-88
2023/07/12 12:04:24;;;;;;;2.38;1.30;;;;;;;;;;5045060;28;20041;-89
2023/07/12 12:06:55;;;;;;;1.30;1.13;;;;;;;;;;5046076;28;20041;-88
2023/07/12 12:09:23;;;;;;;3.70;1.27;;;;;;;;;;5044148;28;20069;-90
2023/07/12 12:11:49;;;;;;;3.78;1.55;;;;;;;;;;5046525;28;20040;-89
2023/07/12 12:14:19;;;;;;;2.58;1.60;;;;;;;;;;5047117;28;20052;-88
2023/07/12 12:16:53;;;;;;;4.70;1.60;;;;;;;;;;5042570;28;20053;-89
2023/07/12 12:19:21;;;;;;;3.00;1.38;;;;;;;;;;5045391;28;20048;-87
2023/07/12 12:21:51;;;;;;;1.65;1.45;;;;;;;;;;5046106;28;20397;-94
2023/07/12 12:24:17;;;;;;;;;;;;;;;;;;5030299;28;20041;-88
2023/07/12 12:26:45;;;;;;;2.38;1.20;;;;;;;;;;5045136;28;19944;-89
2023/07/12 12:29:19;;;;;;;2.65;1.40;;;;;;;;;;5047727;28;20044;-90
2023/07/12 12:31:50;;;;;;;7.22;1.90;;;;;;;;;;5046318;28;20041;-89
2023/07/12 12:34:17;;;;;;;3.53;1.30;;;;;;;;;;5046359;28;20044;-89
2023/07/12 12:37:18;;;;;;;2.05;0.90;;;;;;;;;;5045788;28;20049;-88
2023/07/12 12:39:57;;;;;;;4.63;1.50;;;;;;;;;;5000810;28;20046;-89
2023/07/12 12:42:24;;;;;;;1.40;1.20;;;;;;;;;;5028480;28;20049;-88
2023/07/12 12:44:51;;;;;;;1.90;0.98;;;;;;;;;;5010832;28;20046;-88
2023/07/12 12:47:21;;;;;;;1.05;0.73;;;;;;;;;;5009669;28;20068;-92
2023/07/12 12:49:47;;;;;;;1.35;1.05;;;;;;;;;;5011734;28;20052;-87
2023/07/12 12:52:29;;;;;;;2.55;0.82;;;;;;;;;;5012361;28;20121;-92
2023/07/12 12:54:58;;;;;;;1.10;1.00;;;;;;;;;;5042441;28;20074;-90
2023/07/12 12:57:24;;;;;;;1.60;1.30;;;;;;;;;;5011277;28;20402;-89
2023/07/12 12:59:50;;;;;;;2.47;1.10;;;;;;;;;;5013762;28;20041;-88
2023/07/12 13:02:18;;;;;;;2.80;0.95;;;;;;;;;;5011015;28;20073;-87
2023/07/12 13:04:44;;;;;;;3.40;1.20;;;;;;;;;;5011425;28;20144;-88
2023/07/12 13:07:13;;;;;;;2.90;1.20;;;;;;;;;;5028240;28;20116;-88
2023/07/12 13:09:40;;;;;;;1.23;0.95;;;;;;;;;;5026809;28;20056;-88
2023/07/12 13:12:12;;;;;;;1.90;0.77;;;;;;;;;;5027269;28;20050;-88
2023/07/12 13:14:38;;;;;;;3.00;1.10;;;;;;;;;;5039323;28;20127;-88
2023/07/12 13:17:05;;;;;;;3.38;0.90;;;;;;;;;;5048409;28;20613;-86
2023/07/12 13:19:31;;;;;;;2.13;0.93;;;;;;;;;;5048190;28;20489;-87
2023/07/12 13:21:57;;;;;;;3.85;0.95;;;;;;;;;;5050123;28;20429;-89
2023/07/12 13:24:23;;;;;;;4.13;1.13;;;;;;;;;;5048649;28;20469;-88
2023/07/12 13:26:49;;;;;;;1.25;0.93;;;;;;;;;;5050341;28;20072;-93
2023/07/12 13:29:19;;;;;;;2.65;0.65;;;;;;;;;;5047494;28;20052;-90
2023/07/12 13:31:45;;;;;;;1.63;0.90;;;;;;;;;;5046305;28;20441;-87
2023/07/12 13:34:11;;;;;;;1.00;0.80;;;;;;;;;;5048574;28;20099;-87
2023/07/12 13:36:37;;;;;;;0.90;0.80;;;;;;;;;;5048660;28;20114;-88
2023/07/12 13:39:17;;;;;;;2.15;1.00;;;;;;;;;;5051400;28;20045;-86
2023/07/12 13:41:47;;;;;;;2.42;1.17;;;;;;;;;;5043786;28;20032;-91
2023/07/12 13:44:14;;;;;;;1.45;0.82;;;;;;;;;;5051733;28;20041;-88
2023/07/12 13:46:43;;;;;;;2.50;1.20;;;;;;;;;;5053864;28;20045;-89
2023/07/12 13:49:10;;;;;;;1.13;0.73;;;;;;;;;;5048263;28;20113;-84
2023/07/12 13:51:39;;;;;;;1.77;0.93;;;;;;;;;;5050398;28;20113;-86
2023/07/12 13:54:05;;;;;;;2.22;1.25;;;;;;;;;;5047866;28;20044;-86
2023/07/12 13:56:31;;;;;;;1.55;0.80;;;;;;;;;;5047002;28;20077;-85
2023/07/12 13:58:57;;;;;;;1.05;0.85;;;;;;;;;;5046215;28;20050;-84
2023/07/12 14:01:25;;;;;;;1.10;0.90;;;;;;;;;;5031335;28;20041;-85
2023/07/12 14:03:52;;;;;;;1.38;0.88;;;;;;;;;;5047097;28;20040;-89
2023/07/12 14:06:18;;;;;;;0.95;0.80;;;;;;;;;;5048821;28;20041;-84
2023/07/12 14:08:44;;;;;;;1.25;0.65;;;;;;;;;;5048784;28;20037;-82
2023/07/12 14:11:29;;;;;;;2.63;1.20;;;;;;;;;;5047306;28;20037;-84
2023/07/12 14:13:55;;;;;;;1.30;0.80;;;;;;;;;;5047662;28;20060;-85
2023/07/12 14:16:23;;;;;;;1.90;1.20;;;;;;;;;;5031683;28;20033;-83
2023/07/12 14:18:49;;;;;;;2.00;0.80;;;;;;;;;;5047887;28;20404;-86
2023/07/12 14:21:16;;;;;;;3.45;0.60;;;;;;;;;;5046360;28;20037;-88
2023/07/12 14:23:45;;;;;;;2.17;1.00;;;;;;;;;;5046401;28;20692;-83
2023/07/12 14:26:20;;;;;;;1.38;0.70;;;;;;;;;;5043735;28;20116;-86
2023/07/12 14:28:47;;;;;;;1.27;0.77;;;;;;;;;;5077468;28;20450;-85
2023/07/12 14:31:17;;;;;;;2.03;0.70;;;;;;;;;;5046044;28;20539;-84
2023/07/12 14:33:44;;;;;;;1.27;0.70;;;;;;;;;;5045296;28;20083;-88
2023/07/12 14:36:14;;;;;;;2.15;1.15;;;;;;;;;;5040959;28;20425;-94
2023/07/12 14:38:43;;;;;;;1.67;0.70;;;;;;;;;;5044309;28;20053;-86
2023/07/12 14:41:14;;;;;;;1.67;0.70;;;;;;;;;;5040773;28;20489;-86
2023/07/12 14:43:40;;;;;;;1.45;0.57;;;;;;;;;;5044800;28;20114;-89
2023/07/12 14:46:06;;;;;;;2.00;0.70;;;;;;;;;;5042461;28;20124;-86
2023/07/12 14:48:32;;;;;;;2.35;0.60;;;;;;;;;;5045944;28;20865;-86